Henry Post Army Air Field (Fort Sill)
KFSI : now visible

Airfield :











YOU CAN JOIN US ON...

 
LOGIN :

Register | Disclaimer

   EN    FR    IT 

 









Legend :    VFR   Marginal VFR   IFR   Intensive IFR   Very Intensive IFR
Visi :
Ceiling :
>= 8 km
>= 3000ft
5 to 8 km
1000 to 3000 ft
1500m to 5 km
500 to 1000 ft
800 to 1500m
200 to 500 ft
< 800m
< 200 ft
Symbols :   Thunderstorms  Fog  Heavy snow  Heavy precipitations  Wind > 20 kt







- Airport Elevation : 1189 ft


KFSI - Henry Post Army Air Field (Fort Sill)

CURRENT METAR :
  • 162256Z AUTO 11008KT 10SM CLR 32/23 A2997 RMK AO2 SLP139 T03240227

EXPIRED METARs :
  • 162235Z AUTO 12012KT 10SM CLR 33/22 A2997 RMK AO2 WSHFT 29 SLP139
  • 162156Z AUTO 16011KT 10SM FEW060 33/23 A2998 RMK AO2 SLP142 T03290226
  • 162056Z AUTO 17011KT 10SM CLR 34/22 A2999 RMK AO2 SLP145 T03370224 57021

TAF TAF KFSI
Valid from the 16 at 21:00 until the 18 at 03:00 UTC


162100Z 1621/1803 15010G15KT 9999 SCT250 QNH2997INS
BECMG 1700/1701 12006KT 9999 SKC QNH3001INS
BECMG 1716/1717 18010G15KT 9999 SCT060 QNH2990INS TX34/1621Z TN22/1712Z LAST NO AMDS AFT 1703 NEXT 1713
No reported NOTAMs for that airfield.



MET'MAP, your aeronautical weather chart ! - Copyright ORBIFLY December 2007 - Disclaimer

ORBIFLY MET'MAP TEAM :

Programming & Development : Alexandra Zaïnal
Concept & Development : Baudouin d'Aumeries
Co-Development & Prog : Marc-Olivier Méhu
Technical & hardware support : Manuel Goepfert

Contact : metmap@orbifly.com




SOURCES & CREDITS :

   NOAA       Earth
Advisory